Flying Point (P9)
 Latitude 43 49.54'N, Longitude 70 2.17'W
Station Day Bottom Sample Temperature Salinity DO NO3+NO2 Si(OH)4 NH4 PO4
Depth(m) Depth(m) (deg. C) ppt mg/L (uM) (uM) (uM) (uM)
P9LFP 4/17/2001 8.0 0.0 7.7 29.8 11.4 0.02 7.11 0.29 0.50
P9LFP 4/17/2001 8.0 8.0 6.2 30.2 11.9 0.02 6.00 0.17 0.61
P9LFP 5/10/2001 9.6 0.0 13.0 30.0 10.4 0.05 0.00 0.00 0.33
P9LFP 5/10/2001 9.6 4.0 10.8 30.1 10.9 0.05 0.01 0.00 0.32
P9LFP 5/10/2001 9.6 9.6 9.4 30.1 10.9 0.05 0.21 0.00 0.42
P9LFP 6/7/2001 7.9 0.0 14.1 30.2 10.5 0.05 5.13 0.00 0.57
P9LFP 6/7/2001 7.9 4.0 11.4 30.4 10.5 0.05 4.45 0.00 0.43
P9LFP 6/7/2001 7.9 7.9 10.8 30.5 10.0 0.05 4.45 0.00 0.51
P9LFP 7/19/2001 9.8 0.0 19.2 30.6 8.8 0.09 1.62 0.00 0.92
P9LFP 7/19/2001 9.8 4.0 16.2 30.8 8.9 0.09 1.95 0.00 0.75
P9LFP 7/19/2001 9.8 9.8 14.0 30.8 8.3 0.09 4.85 0.00 1.00
P9LFP 8/8/2001 9.5 0.0 21.5 31.0 9.0 0.09 5.96 0.00 0.81
P9LFP 8/8/2001 9.5 4.0 15.8 31.0 9.2 0.09 5.89 0.00 0.80
P9LFP 8/8/2001 9.5 9.5 15.0 31.0 8.7 0.09 5.67 0.00 0.84
P9LFP 8/30/2001 7.8 0.0 19.3 31.4 8.6 0.04 7.55 0.00 0.96
P9LFP 8/30/2001 7.8 4.0 18.2 31.3 8.9 0.04 7.72 0.00 0.98
P9LFP 8/30/2001 7.8 7.8 16.6 31.3 8.1 0.04 8.00 0.00 1.01
P9LFP 10/12/2001 7.3 0.0 14.7 31.5 10.6 0.04 1.14 0.00 0.72
P9LFP 10/12/2001 7.3 7.3 13.9 31.6 10.0 0.04 2.96 0.00 0.81
P9LFP 3/28/2002 8.9 0.0 3.9 30.8 11.6 0.00 1.21 0.08 0.12
P9LFP 3/28/2002 8.9 8.9 3.8 31.5 11.2 0.85 2.68 0.26 0.31
P9LFP 4/24/2002 6.0 0.0 8.3 29.5 10.9 0.00 0.53 0.49 0.37
P9LFP 4/24/2002 6.0 6.0 8.4 29.6 10.6 0.00 0.50 0.33 0.23
P9LFP 6/20/2002 8.0 8.0 16.0 30.0 9.4 20.22 3.58 44.60 1.79
P9LFP 6/20/2002 8.0 0.0 16.6 29.9 9.3 7.67 7.75 7.10 1.82
P9LFP 7/17/2002 8.3 8.3 14.0 31.2 9.9 0.08 0.22 0.74 1.68
P9LFP 7/17/2002 8.3 2.0 17.2 31.1 8.6 0.79 3.60 1.57 2.59
P9LFP 7/17/2002 8.3 0.0 17.7 31.0 8.5 0.08 0.75 0.64 1.92
P9LFP 8/21/2002 7.5 0.0 20.3 32.1 8.4 10.05 7.45 6.73 1.87
P9LFP 8/21/2002 7.5 7.5 18.3 32.1 7.3 0.00 8.02 1.75 2.02
P9LFP 9/30/2002 9.5 0.0 15.6 31.0 8.9 0.00 4.86 0.30 0.37
P9LFP 9/30/2002 9.5 9.5 15.3 31.1 8.5 0.45 5.29 0.45 0.42
P9LFP 2/27/2003 9.8 0.0 -1.0 32.3 13.0 0.16 1.65 1.09 0.29
P9LFP 3/28/2003 7.4 0.0 5.4 30.5 12.5 0.00 4.31 0.00 0.05
P9LFP 3/28/2003 7.4 7.4 3.2 31.5 13.6 0.00 3.21 0.00 0.18
P9LFP 4/25/2003 7.3 0.0 7.9 30.8 11.4 0.04 10.71 1.97 0.63
P9LFP 4/25/2003 7.3 7.3 7.6 30.9 11.9 0.00 7.82 0.00 0.38
P9LFP 5/19/2003 6.9 0.0 13.0 30.3 12.0 0.00 6.48 0.17 0.00
P9LFP 5/19/2003 6.9 6.9 10.3 30.3 11.9 0.00 7.97 0.08 0.00
P9LFP 6/20/2003 9.8 0.0 17.0 30.3 9.2 0.17 2.86 2.48 0.71
P9LFP 6/20/2003 9.8 9.8 10.8 30.5 9.6 6.80 4.93 8.53 0.81
P9LFP 7/10/2003 8.0 0.0 19.1 30.8 8.8 0.35 5.06 0.00 0.77
P9LFP 7/10/2003 8.0 8.0 15.9 30.9 9.5 0.18 5.20 0.00 0.74
P9LFP 7/29/2003 8.9 0.0 21.2 31.0 9.0 1.78 12.66 0.00 0.51
P9LFP 7/29/2003 8.9 2.1 16.2 31.2 8.9 3.06 11.06 8.10 1.38
P9LFP 7/29/2003 8.9 8.9 13.1 31.3 8.0 1.84 8.58 1.50 0.23
P9LFP 8/19/2003 9.4 0.0 21.0 31.3 8.4 0.24 8.39 0.31 1.72
P9LFP 8/19/2003 9.4 4.1 19.6 31.4 8.5 0.30 8.11 1.29 1.55
P9LFP 8/19/2003 9.4 9.4 18.1 31.4 8.8 0.30 9.04 1.18 1.94
P9LFP 10/10/2003 9.9 0.0 14.8 31.2 9.5 0.00 1.46 1.18 0.71
P9LFP 10/10/2003 9.9 9.9 12.8 32.0 7.4 1.64 6.05 0.06 1.18
P9LFP 2/25/2004 10.7 0.0 -0.2 21.6 14.7 2.13 1.96 2.11 0.56
P9LFP 2/25/2004 10.7 10.7 -0.3 32.6 14.6 2.02 2.27 2.11 0.82
P9LFP 4/21/2004 9.4 0.0 8.4 30.5 10.5 0.34 10.62 2.55 0.70
P9LFP 4/21/2004 9.4 9.4 7.3 30.7 11.2 39.29 10.80 34.96 1.28
P9LFP 5/20/2004 8.9 0.0 15.7 30.4 9.8 0.11 0.61 1.36 0.69
P9LFP 5/20/2004 8.9 8.9 12.0 30.5 9.3 0.00 1.31 0.64 0.57
P9LFP 6/11/2004 7.8 0.0 14.8 30.9 9.9 0.00 4.31 1.18 0.80
P9LFP 6/11/2004 7.8 7.8 11.8 31.0 9.9 0.03 4.05 2.16 0.65
P9LFP 6/28/2004 4.3 0.0 17.0 31.6 9.2 0.00 4.99 0.00 0.55
P9LFP 6/28/2004 4.3 4.3 15.2 31.6 9.7 0.57 3.84 0.00 0.69
P9LFP 7/26/2004 10.7 0.0 18.4 30.4 9.0 0.00 3.51 1.91 0.03
P9LFP 7/26/2004 10.7 6.0 16.4 30.5 8.9 0.00 4.07 0.00 0.39
P9LFP 8/17/2004 9.5 0.0 18.0 30.4 8.6 0.70 9.78 0.34 0.69
P9LFP 8/17/2004 9.5 9.5 15.2 30.7 7.7 0.85 9.42 1.08 0.75
P9LFP 10/14/2004 7.2 0.0 13.8 31.7 9.1 3.68 3.52 1.02 0.31
P9LFP 10/14/2004 7.2 7.2 13.1 31.7 8.9 3.80 4.18 0.61 0.45
P9LFP 11/18/2004 10.0 0.0 6.0 32.2 11.4 0.72 1.36 0.00 0.27
P9LFP 11/18/2004 10.0 10.0 5.9 32.1 11.6 0.96 1.50 4.04 0.34
P9LFP 12/22/2004 7.4 0.0 1.6 32.0 11.4 1.27 6.03 4.77 0.22
P9LFP 12/22/2004 7.4 7.4 2.3 32.6 11.3 1.57 5.60 1.57 0.00
P9FLP 7/15/2005 8.4 0.0 20.6 29.6 8.9 0.14 0.75 0.30 0.00
P9FLP 7/15/2005 8.4 8.4 17.8 29.7 10.6 0.19 2.32 0.34 0.00
P9LFP 4/22/2005 8.1 0.0 8.4 29.1 11.6. 0.25 7.49 3.39 0.02
P9LFP 4/22/2005 8.1 8.1 6.2 29.6 12.0 3.51 7.26 11.44 0.02
P9LFP 6/23/2005 9.5 0.0 16.2 28.2 10.0 0.71 4.00 1.07 0.39
P9LFP 6/23/2005 9.5 9.5 12.5 28.5 9.2 0.74 4.38 0.64 0.38
P9LFP 8/12/2005 7.5 0.0 21.5 30.0 8.9 0.09 7.22 2.15 0.02
P9LFP 8/12/2005 7.5 2.0 19.8 30.1 8.7 0.23 7.80 1.82 0.02
P9LFP 8/12/2005 7.5 7.5 13.5 30.3 7.7 1.28 9.77 1.64 0.02
P9LFP 8/26/2005 8.8 0.0 19.1 30.2 9.5 0.12 6.56 2.79 0.02
P9LFP 8/26/2005 8.8 7.9 16.1 30.3 8.7 1.31 2.11 8.13 0.08
P9LFP 9/19/2005 9.2 0.0 17.3 30.3 8.9 16.53 4.04 23.62 0.50
P9LFP 9/19/2005 9.2 9.2 15.2 30.5 8.3 0.84 2.85 1.07 0.13
P9LFP 9/28/2005 7.3 0.0 16.4 30.4 9.4 0.11 0.26 0.08 0.02
P9LFP 9/28/2005 7.3 7.3 14.2 30.6 7.3 0.41 3.13 0.47 0.02
P9LFP 10/21/2005 8.0 0.0 11.4 29.0 8.8 3.73 11.05 5.59 0.02
P9LFP 10/21/2005 8.0 8.0 11.6 30.2 8.0 2.91 7.17 2.10 0.02
P9LFP 3/28/2006 6.3 0.0 5.0 30.8 12.2 0.04 8.92 0.01 0.26
P9LFP 3/28/2006 6.3 6.3 4.4 30.9 12.5 6.57 8.86 25.98 0.40
P9LFP 4/28/2006 9.0 0.0 10.1 30.4 9.9 0.58 6.07 3.80 0.00
P9LFP 4/28/2006 9.0 9.0 9.4 30.4 9.8 0.13 10.97 1.52 0.00
P9LFP 5/25/2006 7.5 0.0 12.1 29.2 10.4 54.13 3.49 21.80 0.01
P9LFP 5/25/2006 7.5 7.5 10.6 29.5 10.4 1.13 1.80 0.89 0.00
P9LFP 7/19/2006 7.5 0.0 21.6 30.4 8.7 0.18 14.97 0.50 1.41
P9LFP 7/19/2006 7.5 4.0 21.3 30.6 9.4 0.18 15.18 0.20 1.32
P9LFP 7/19/2006 7.5 7.5 16.2 30.8 8.3 0.40 11.88 2.46 1.26
P9LFP 7/31/2006 9.7 0.0 22.3 30.6 8.3 0.54 5.35 5.11 0.05
P9LFP 7/31/2006 9.7 4.0 19.0 30.9 6.3 3.13 10.31 6.63 0.34
P9LFP 7/31/2006 9.7 9.7 13.5 31.5 6.8 2.49 13.01 2.51 0.52
P9LFP 8/17/2006 8.0 0.0 20.3 31.2 8.5 0.18 12.82 0.01 1.74
P9LFP 8/17/2006 8.0 4.0 17.2 31.5 9.1 0.08 11.52 0.02 1.27
P9LFP 8/17/2006 8.0 8.0 14.6 31.7 9.3 0.98 8.24 1.85 1.30
P9LFP 8/31/2006 8.0 0.0 17.8 31.4 8.9 9.05 1.48 12.95 1.07
P9LFP 8/31/2006 8.0 8.0 16.1 31.6 8.5 9.76 3.13 14.99 1.70
P9LFP 9/26/2006 10.0 0.0 16.1 31.5 9.3 4.80 7.82 9.13 0.47
P9LFP 9/26/2006 10.0 10.0 15.2 31.7 8.4 2.70 4.69 4.37 0.16
P9LFP 3/26/2007 0.0 2.8 29.4 13.2 10.71 2.94 5.94 0.37
P9LFP 3/26/2007 7.3 2.4 21.6 14.0 2.09 4.64 1.76 1.11
P9LFP 4/26/2007 0.0 9.4 28.9 12.1 3.98 15.34 2.54 0.01
P9LFP 4/26/2007 6.1 9.1 29.0 12.2 0.53 13.23 0.43 0.38
P9LFP 5/25/2007 0.0 12.9 29.1 10.9 1.67 6.03 3.34 0.66
P9LFP 5/25/2007 7.0 12.6 29.8 10.3 1.08 11.08 3.64 0.68
P9LFP 6/29/2007 0.1 19.6 30.8 9.9 0.55 0.07 0.76 0.02
P9LFP 6/29/2007 7.6 10.4 31.4 9.7 0.90 2.98 1.16 0.02
P9LFP 7/31/2007 0.2 21.5 30.8 8.9 0.22 4.86 0.60 3.58
P9LFP 7/31/2007 10.1 14.2 30.9 8.8 0.44 4.68 1.20 2.11
P9LFP 9/21/2007 0.2 17.3 31.4 9.7 0.62 0.45 1.16 0.01
P9LFP 9/21/2007 8.0 15.2 31.6 9.8 1.05 1.34 0.96 0.01
P9FLP 4/15/2008 7.1 0.0 7.5 30.1 11.1 1.07 14.27 2.27 0.02
P9FLP 4/15/2008 7.1 7.1 6.1 30.5 10.2 0.33 9.29 0.81 0.02
P9LFP 1/17/2008 8.3 0.0 0.3 30.7 14.1 0.91 3.30 3.57 0.01
P9LFP 1/17/2008 8.3 8.3 0.9 31.2 13.9 3.21 9.57 3.42 0.11
P9LFP 2/25/2008 10.1 0.0 1.9 30.9 13.2 0.21 10.05 0.05 0.34
P9LFP 2/25/2008 10.1 10.1 1.8 31.0 13.0 0.87 10.05 6.69 0.09
P9LFP 3/18/2008 9.8 0.0 2.6 30.5 13.9 1.89 9.01 1.75 0.02
P9LFP 3/18/2008 9.8 9.8 2.4 30.6 13.2 2.22 9.49 2.28 0.01
P9FLP 6/27/2008 7.5 0.0 20.5 29.3 9.3 0.09 3.02 4.87 0.16
P9FLP 6/27/2008 7.5 7.5 13.9 30.6 8.1 0.09 8.98 5.85 0.37
P9FLP 8/28/2008 7.9 0.0 18.1 30.9 9.3 1.20 5.92 5.46 0.01
P9FLP 8/28/2008 7.9 7.9 14.4 31.2 8.4 0.91 4.92 4.05 0.01
P9FLP 10/24/2008 7.6 0.0 9.7 31.5 10.8 0.10 0.14 1.38 0.02
P9FLP 10/24/2008 7.6 7.6 9.7 31.6 10.6 0.09 1.02 2.33 0.01
P9LFP 3/26/2009 8.9 0.0 4.0 31.1 13.5 2.23 10.85 12.15 0.58
P9LFP 3/26/2009 8.9 8.9 3.1 31.4 12.7 0.71 9.41 9.62 0.96
P9LFP 4/30/2009 8.0 0.0 10.8 29.6 11.5 0.15 8.09 5.38 0.67
P9LFP 4/30/2009 8.0 8.0 9.6 29.8 11.7 0.09 13.29 0.44 0.82
P9LFP 5/26/2009 7.1 0.0 12.3 30.1 10.4 0.13 0.45 4.37 1.25
P9LFP 5/26/2009 7.1 7.1 9.8 30.3 10.5 1.23 2.09 8.15 1.46
P9LFP 9/30/2009 8.1 0.0 16.3 30.9 8.8 0.09 0.47 2.19 0.32
P9LFP 9/30/2009 8.1 8.1 15.5 31.2 8.5 0.09 0.60 0.13 0.42
P9LFP 5/27/2010 9.1 0.0 18.1 30.8 9.8 0.67 6.46 2.89 0.41
P9LFP 5/27/2010 9.1 9.1 11.3 30.7 10.6 0.66 2.08 1.39 0.09
P9LFP 6/25/2010 9.5 0.0 18.8 30.7 9.9 0.93 0.90 6.34 0.21
P9LFP 6/25/2010 9.5 9.5 12.9 31.0 9.1 1.05 4.37 5.91 0.24
P9LFP 7/27/2010 9.1 0.0 18.6 30.7 8.7 0.09 7.02 2.06 0.18
P9LFP 7/27/2010 9.1 9.1 15.3 31.1 7.7 0.09 6.76 2.90 0.18
P9LFP 8/19/2010 8.0 0.0 21.5 31.5 8.3 0.09 3.23 0.92 0.51
P9LFP 8/19/2010 8.0 8.0 18.0 31.6 7.6 0.09 3.30 1.63 0.25
P9LFP 9/16/2010 8.1 0.0 16.3 32.0 9.2 0.09 3.95 3.86 0.23
P9LFP 9/16/2010 8.1 8.1 15.6 32.0 9.1 0.09 4.58 0.88 0.42
P9LFP 4/25/2011 9.0 0.0 8.0 28.0 10.6 0.36 8.38 0.72 0.51
P9LFP 4/25/2011 9.0 9.0 5.4 29.5 10.9 1.29 7.24 1.18 0.41
P9LFP 6/28/2011 8.2 8.2 14.6 29.8 8.6 0.30 5.70 4.29 0.48
P9LFP 6/28/2011 8..2 0.0 18.8 29.6 9.2 0.76 5.81 5.47 0.57
P9LFP 7/27/2011 6.9 0.0 21.3 30.8 8.1 0.55 5.87 4.14 0.11
P9LFP 7/27/2011 6.9 6.9 15.5 31.0 7.3 0.47 8.00 3.56 0.44
P9LFP 8/17/2011 10.0 0.0 18.4 31.9 7.9 0.39 3.90 3.59 0.48
P9LFP 8/17/2011 10.0 10.0 16.2 32.2 7.2 0.63 5.37 8.91 0.09
P9LFP 9/13/2011 8.1 0.0 18.5 29.9 8.6 0.04 1.27 0.01 0.05
P9LFP 9/13/2011 8.1 8.1 17.5 30.0 7.7 0.87 4.95 4.25 0.92
P9LFP 2/16/2012 7.1 0.2 0.8 31.0 11.7 1.68 1.38 20.55 0.79
P9LFP 2/16/2012 7.1 7.1 1.1 21.3 12.3 8.41 5.41 51.63 2.67
P9LFP 4/30/2012 7.0 0.2 10.5 30.0 10.1 1.24 6.55 10.09 0.58
P9LFP 4/30/2012 7.0 7.0 8.4 30.9 10.3 4.79 11.15 39.76 1.97
P9LFP 5/21/2012 7.9 0.3 17.6 29.1 10.6 0.39 0.14 2.41 0.16
P9LFP 5/21/2012 7.9 7.9 10.4 30.3 9.9 0.32 1.70 0.61 0.19
P9LFP 7/31/2012 6.8 0.2 19.8 31.2 8.5 0.70 0.56 5.39 0.64
P9LFP 7/31/2012 6.8 6.8 19.0 31.2 8.8 0.26 0.49 2.62 0.41
P9LFP 8/24/2012 8.7 0.2 21.2 31.3 8.1 0.53 7.38 2.23 0.59
P9LFP 8/24/2012 8.7 8.7 18.4 31.4 7.5 1.06 8.35 4.05 1.24
P9LFP 9/24/2012 7.5 0.1 16.9 31.8 8.8 0.12 0.09 0.92 0.28
P9LFP 9/24/2012 7.5 7.5 16.5 31.9 8.8 0.29 0.91 1.10 0.50
P9LFP 12/13/2012 5.8 0.2 4.0 31.8 10.9 0.43 0.11 0.77 0.18
P9LFP 12/13/2012 5.8 5.8 4.0 31.8 11.0 0.51 0.07 3.21 0.13
P9LFP 1/9/2013 6.4 0.2 -0.9 31.3 11.7 0.92 0.84 1.81 0.22
P9LFP 1/9/2013 6.4 6.4 -0.7 31.4 12.2 0.73 0.80 11.19 0.22
P9LFP 2/13/2013 9.6 0.1 -0.7 31.9 11.8 1.29 0.85 3.46 0.25
P9LFP 2/13/2013 9.6 9.6 -1.3 31.9 11.8 0.95 0.95 0.03 0.29
P9LFP 4/29/2013 10.1 0.0 11.3 30.3 10.7 0.30 0.17 3.64 0.02
P9LFP 4/29/2013 10.1 10.1 9.7 30.3 11.1 0.09 0.11 0.81 0.03
P9LFP 5/28/2013 9.7 0.1 11.8 30.2 9.5 0.09 0.78 2.80 0.57
P9LFP 5/28/2013 9.7 9.7 10.7 30.3 9.5 0.04 1.31 1.47 0.54
P9LFP 7/31/2013 8.0 0.0 20.8 30.3 9.2 0.09 6.50 8.19 0.48
P9LFP 7/31/2013 8.0 8.0 15.9 30.6 7.9 0.09 6.96 0.96 0.32
P9LFP 8/15/2013 8.3 0.1 19.1 30.8 8.8 1.02 3.36 5.62 0.61
P9LFP 8/15/2013 8.3 8.3 16.1 31.0 9.3 0.26 2.66 2.30 0.21
P9LFP 9/27/2013 8.0 0.0 15.2 31.4 8.8 0.29 3.45 4.62 0.52
P9LFP 10/29/2013 8.1 0.0 10.3 31.9 9.6 0.09 0.22 4.15 0.16
P9LFP 10/29/2013 8.1 8.1 10.1 31.9 9.6 0.09 0.57 7.97 0.25
P9LFP 5/29/2014 9.6 0.3 2.7 28.7 0.45 0.68 10.41 0.29
P9LFP 5/29/2014 9.6 9.6 3.0 29.1 0.07 0.48 1.30 0.33
P9LFP 6/23/2014 7.9 0.2 3.2 30.3 1.36 9.68 18.48 0.78
P9LFP 6/23/2014 7.9 7.9 1.4 30.4 0.03 0.64 1.51 0.38
P9LFP 7/30/2014 10.0 0.1 1.7 30.3 0.03 12.58 0.03 0.30
P9LFP 7/30/2014 10.0 10.0 1.8 30.9 1.41 11.95 4.28 0.60
P9LFP 8/21/2014 7.5 0.1 1.8 29.9 2.93 6.24 8.17 0.58
P9LFP 8/21/2014 7.5 7.5 1.5 30.6 0.51 6.57 1.88 0.45
P9LFP 12/15/2014 8.1 0.2 1.8 31.6 3.89 6.73 1.65 0.55
P9LFP 12/15/2014 8.1 8.1 1.0 32.0 4.09 6.45 0.71 0.61
P9LFP 1/23/2015 10.8 0.0 1.3 32.0 3.11 6.47 1.87 0.63
P9LFP 1/23/2015 10.8 10.8 1.0 32.3 7.12 13.02 0.82 0.79
P9LFP 3/24/2015 9.8 0.1 1.3 31.7 0.36 3.64 1.01 0.36
P9LFP 3/24/2015 9.8 9.8 1.4 31.9 0.30 0.93 2.71 0.35
P9FLP 7/22/2015 4.8 0.0 20.3 30.5 8.6 0.78 7.08 15.24 0.53
P9FLP 7/22/2015 4.8 4.8 14.7 30.9 8.4 0.62 9.07 11.62 0.57
P9FLP 1/7/2016 6.7 0.2 1.8 31.3 11.3 4.86 8.72 5.10 0.74
P9FLP 1/7/2016 6.7 6.7 1.8 31.4 11.2 5.61 9.28 0.66 0.75
P9LFP 7/7/2015 12.5 18.7 30.2 7.8 0.94 8.05 16.53 0.63
P9LFP 8/14/2015 6.1 0.2 20.4 30.9 8.1 0.14 6.47 7.68 0.26
P9LFP 8/14/2015 6.1 6.1 16.8 31.1 7.4 0.24 11.95 4.76 0.40
P9LFP 9/16/2015 10.3 0.3 19.4 31.6 8.0 0.09 4.09 0.16 0.52
P9LFP 9/16/2015 10.3 10.3 16.3 31.8 7.3 0.29 6.39 2.75 0.70